Hallandale, Florida
Current Conditions -  °F | °C
As of 2:53 AM on Friday 24 Oct 2014 (Local Time) from KHWO Reporting Station
Overcast Overcast  
Wind Chill: 78°   Ceiling: 3000
Heat Index: 80°   Visibility: 10mi
Dew Point: 68°   Wind: 13mph
Humidity: 71%   Direction: 40°NE
Pressure: 29.87"   Gusts: 21mph
Location:  25.98°N, 80.15°W
Report Text: KHWO 240653Z AUTO 04011G18KT 10SM BKN030 OVC037 26/20 A2987 RMK AO2 SLP113 T02560200
Loading
Personal Weather Stations






























Interactive Weather Map
Tropical Storm Tracking
New forecast layout! Learn more

10-Day Weather Forecast

Advertisements
Track Severe Weather on mobile